Flight Track Log - Related Links

Times and Time Zones

All times are in EDT time to prevent confusion due to time zone crossing. See the AVN11 flight status page for this flight to view local times or setup timezone preferences in your user account.

Time Position Orientation Groundspeed Altitude Reporting Facility
EDT Latitude Longitude Course Direction KTS MPH feet Rate Location/Type
Tue 07:34:15 AM -33.9452 151.1757 101° East 94 108  Level FlightAware ADS-B (YSSY / SYD)
Tue 07:34:35 AM -33.9571 151.1788 168° South 160 184 600 Level FlightAware ADS-B (YSSY / SYD)
Tue 07:34:55 AM -33.9721 151.1819 170° South 160 184 400 1,600 Climbing FlightAware ADS-B (YSSY / SYD)
Tue 07:35:05 AM -33.9800 151.1814 183° South 162 186 800 2,333 Climbing FlightAware ADS-B (YSSY / SYD)
Tue 07:35:13 AM -33.9823 151.1810 187° South 171 197 1,100 1,565 Climbing FlightAware ADS-B
Tue 07:35:28 AM -33.9990 151.1788 186° South 181 208 1,400 1,091 Climbing FlightAware ADS-B
Tue 07:35:35 AM -34.0045 151.1781 186° South 181 208 1,500 1,059 Climbing FlightAware ADS-B (YSSY / SYD)
Tue 07:35:45 AM -34.0134 151.1770 186° South 197 227 1,700 1,263 Climbing FlightAware ADS-B (YSSY / SYD)
Tue 07:35:54 AM -34.0217 151.1767 181° South 206 237 1,900 1,500 Climbing FlightAware ADS-B
Tue 07:36:09 AM -34.0217 151.1767 181° South 217 250 2,300 2,069 Climbing FlightAware ADS-B
Tue 07:36:23 AM -34.0506 151.1830 170° South 219 252 2,900 2,069 Climbing FlightAware ADS-B
Tue 07:36:38 AM -34.0663 151.1885 164° South 236 272 3,300 1,750 Climbing FlightAware ADS-B
Tue 07:37:11 AM -34.1005 151.1997 165° South 253 291 4,300 1,953 Climbing FlightAware ADS-B
Tue 07:37:21 AM -34.1121 151.2059 156° South 260 299 4,700 2,400 Climbing FlightAware ADS-B
Tue 07:37:31 AM -34.1217 151.2171 136° Southeast 264 304 5,100 2,100 Climbing FlightAware ADS-B
Tue 07:37:41 AM -34.1273 151.2306 116° Southeast 271 312 5,400 1,800 Climbing FlightAware ADS-B
Tue 07:38:01 AM -34.1326 151.2614 102° East 285 328 6,000 2,100 Climbing FlightAware ADS-B
Tue 07:38:21 AM -34.1373 151.2940 100° East 292 336 6,800 2,750 Climbing FlightAware ADS-B
Tue 07:38:25 AM -34.1382 151.3003 99° East 293 337 7,100 3,000 Climbing FlightAware ADS-B
Tue 07:38:41 AM -34.1417 151.3258 99° East 294 338 7,800 2,743 Climbing FlightAware ADS-B
Tue 07:39:00 AM -34.1421 151.3521 91° East 299 344 8,700 3,000 Climbing FlightAware ADS-B
Tue 07:39:11 AM -34.1352 151.3735 69° East 302 348 9,300 3,143 Climbing FlightAware ADS-B
Tue 07:39:21 AM -34.1276 151.3854 53° Northeast 305 351 9,800 2,667 Climbing FlightAware ADS-B
Tue 07:39:29 AM -34.1164 151.3961 38° Northeast 301 346 10,100 1,800 Climbing FlightAware ADS-B
Tue 07:39:41 AM -34.1011 151.4036 22° Northeast 330 380 10,400 1,364 Climbing FlightAware ADS-B
Tue 07:39:51 AM -34.0879 151.4058 North 340 391 10,600 1,050 Climbing FlightAware ADS-B
Tue 07:40:21 AM -34.0360 151.4104 North 376 433 11,100 1,400 Climbing FlightAware ADS-B
Tue 07:40:51 AM -33.9817 151.4155 North 396 456 12,000 2,000 Climbing FlightAware ADS-B
Tue 07:41:24 AM -33.9190 151.4216 North 410 472 13,200 2,250 Climbing FlightAware ADS-B
Tue 07:41:47 AM -33.8804 151.4286 North 419 482 14,100 2,105 Climbing FlightAware ADS-B
Tue 07:42:21 AM -33.8112 151.4540 17° North 441 507 15,200 2,156 Climbing FlightAware ADS-B
Tue 07:42:51 AM -33.7532 151.4765 18° North 449 517 16,400 2,459 Climbing FlightAware ADS-B
Tue 07:43:22 AM -33.6950 151.4989 18° North 456 525 17,700 2,262 Climbing FlightAware ADS-B
Tue 07:43:52 AM -33.6299 151.5239 18° North 467 537 18,700 2,100 Climbing FlightAware ADS-B
Tue 07:44:22 AM -33.5678 151.5478 18° North 474 545 19,800 2,300 Climbing FlightAware ADS-B
Tue 07:44:52 AM -33.5030 151.5725 18° North 479 551 21,000 2,262 Climbing FlightAware ADS-B
Tue 07:45:23 AM -33.4383 151.5973 18° North 485 558 22,100 1,935 Climbing FlightAware ADS-B
Tue 07:45:54 AM -33.3699 151.6233 18° North 491 565 23,000 1,714 Climbing FlightAware ADS-B
Tue 07:46:26 AM -33.3002 151.6498 18° North 500 575 23,900 1,629 Climbing FlightAware ADS-B
Tue 07:47:04 AM -33.2167 151.6815 18° North 510 587 24,900 1,443 Climbing FlightAware ADS-B
Tue 07:47:45 AM -33.1230 151.7169 18° North 521 600 25,800 1,352 Climbing FlightAware ADS-B
Tue 07:48:15 AM -33.0529 151.7435 18° North 527 606 26,500 1,391 Climbing FlightAware ADS-B
Tue 07:48:54 AM -32.9606 151.7784 18° North 534 615 27,400 1,333 Climbing FlightAware ADS-B
Tue 07:49:36 AM -32.8613 151.8159 18° North 539 620 28,300 1,043 Climbing Aus ATC (RADAR)
Tue 07:49:40 AM -32.8550 151.8180 18° North 538 619 28,200  Descending FlightAware ADS-B
Tue 07:49:47 AM -32.8335 151.8262 18° North 545 627 28,300 1,437 Climbing FlightAware ADS-B
Tue 07:50:51 AM -32.6840 151.8820 18° North 541 623 29,900 1,701 Climbing FlightAware ADS-B
Tue 07:50:54 AM -32.6699 151.8876 18° North 545 627 30,200 1,886 Climbing Aus ATC (RADAR)
Tue 07:51:26 AM -32.5970 151.9150 18° North 543 625 31,000 1,754 Climbing FlightAware ADS-B
Tue 07:51:59 AM -32.5140 151.9459 18° North 539 620 32,100 1,543 Climbing Aus ATC (RADAR)
Tue 07:52:01 AM -32.5150 151.9450 18° North 538 619 31,900 811 Descending FlightAware ADS-B
Tue 07:52:36 AM -32.4360 151.9750 18° North 539 620 32,600 1,000 Climbing FlightAware ADS-B
Tue 07:53:19 AM -32.3300 152.0140 17° North 539 620 33,200 1,000 Climbing FlightAware ADS-B
Tue 07:53:54 AM -32.2440 152.0460 17° North 540 621 33,900 1,114 Climbing FlightAware ADS-B
Tue 07:54:29 AM -32.1580 152.0780 17° North 541 623 34,500 880 Climbing FlightAware ADS-B
Tue 07:55:09 AM -32.0630 152.1130 17° North 541 623 35,000 395 Climbing FlightAware ADS-B
Tue 07:55:45 AM -31.9790 152.1440 17° North 543 625 35,000  Level FlightAware ADS-B
Tue 07:56:20 AM -31.8930 152.1760 18° North 549 632 35,000  Level FlightAware ADS-B
Tue 07:56:53 AM -31.8090 152.2070 17° North 549 632 35,000 92 Level FlightAware ADS-B
Tue 07:57:25 AM -31.7269 152.2366 17° North 544 626 35,100  Climbing Aus ATC (RADAR)
Tue 07:57:30 AM -31.7230 152.2380 17° North 547 629 35,000 -150 Descending FlightAware ADS-B
Tue 07:58:05 AM -31.6390 152.2690 17° North 546 628 35,000  Level FlightAware ADS-B
Tue 07:58:40 AM -31.5600 152.2980 17° North 545 627 35,000  Level FlightAware ADS-B
Tue 07:59:12 AM -31.4750 152.3290 17° North 544 626 35,000  Level FlightAware ADS-B
Tue 07:59:49 AM -31.3850 152.3610 17° North 544 626 35,000 83 Level FlightAware ADS-B
Tue 08:00:24 AM -31.3020 152.3920 18° North 552 635 35,100 676 Climbing FlightAware ADS-B
Tue 08:01:00 AM -31.2130 152.4240 17° North 551 634 35,800 759 Climbing FlightAware ADS-B
Tue 08:01:51 AM -31.1080 152.4620 17° North 547 629 36,200 276 Climbing FlightAware ADS-B
Tue 08:02:27 AM -31.0340 152.4880 17° North 547 629 36,200  Level FlightAware ADS-B
Tue 08:03:03 AM -30.9600 152.5150 17° North 547 629 36,200  Level FlightAware ADS-B
Tue 08:03:39 AM -30.8850 152.5410 17° North 547 629 36,200  Level FlightAware ADS-B
Tue 08:04:15 AM -30.8110 152.5680 17° North 547 629 36,200  Level FlightAware ADS-B
Tue 08:04:51 AM -30.7370 152.5940 17° North 547 629 36,200 706 Level FlightAware ADS-B
Tue 08:05:23 AM -30.5582 152.6608 18° North 563 648 37,000 774 Climbing FlightAware ADS-B
Tue 08:05:53 AM -30.4825 152.6925 20° North 562 647 37,000  Level FlightAware ADS-B
Tue 08:06:23 AM -30.4186 152.7320 28° Northeast 560 644 37,000  Level FlightAware ADS-B
Tue 08:06:53 AM -30.3517 152.7822 33° Northeast 559 643 37,000  Level FlightAware ADS-B
Tue 08:07:23 AM -30.2867 152.8310 33° Northeast 558 642 37,000  Level FlightAware ADS-B
Tue 08:07:53 AM -30.2195 152.8811 33° Northeast 557 641 37,000  Level FlightAware ADS-B
Tue 08:08:23 AM -30.1547 152.9295 33° Northeast 556 640 37,000  Level FlightAware ADS-B
Tue 08:09:03 AM -30.0689 152.9932 33° Northeast 556 640 37,000  Level FlightAware ADS-B
Tue 08:09:33 AM -30.0096 153.0370 33° Northeast 556 640 37,000  Level FlightAware ADS-B
Tue 08:10:03 AM -29.9390 153.0891 33° Northeast 555 639 37,000  Level FlightAware ADS-B
Tue 08:10:43 AM -29.8541 153.1518 33° Northeast 556 640 37,000  Level FlightAware ADS-B
Tue 08:11:13 AM -29.7897 153.1993 33° Northeast 556 640 37,000  Level FlightAware ADS-B
Tue 08:11:43 AM -29.7346 153.2400 33° Northeast 556 640 37,000  Level FlightAware ADS-B
Tue 08:12:17 AM -29.6620 153.2920 32° Northeast 556 640 37,000  Level FlightAware ADS-B
Tue 08:13:13 AM -29.5266 153.3927 33° Northeast 556 640 37,000  Level FlightAware ADS-B
Tue 08:13:43 AM -29.4603 153.4413 33° Northeast 556 640 37,000  Level FlightAware ADS-B
Tue 08:14:13 AM -29.3959 153.4884 32° Northeast 555 639 37,000  Level FlightAware ADS-B
Tue 08:14:43 AM -29.3340 153.5336 32° Northeast 555 639 37,000  Level FlightAware ADS-B
Tue 08:15:13 AM -29.2670 153.5822 32° Northeast 555 639 37,000  Level FlightAware ADS-B
Tue 08:15:43 AM -29.2012 153.6300 32° Northeast 553 636 37,000  Level FlightAware ADS-B
Tue 08:16:13 AM -29.1389 153.6752 32° Northeast 553 636 37,000  Level FlightAware ADS-B
Tue 08:16:43 AM -29.0757 153.7209 32° Northeast 553 636 37,000  Level FlightAware ADS-B
Tue 08:17:13 AM -29.0076 153.7705 32° Northeast 552 635 37,000  Level FlightAware ADS-B
Tue 08:17:43 AM -28.9440 153.8165 32° Northeast 552 635 37,000  Level FlightAware ADS-B
Tue 08:18:13 AM -28.8770 153.8652 32° Northeast 550 633 37,000  Level FlightAware ADS-B
Tue 08:18:43 AM -28.8126 153.9117 32° Northeast 549 632 37,000  Level FlightAware ADS-B
Tue 08:19:13 AM -28.7508 153.9562 32° Northeast 547 629 37,000  Level FlightAware ADS-B
Tue 08:19:43 AM -28.6848 154.0032 32° Northeast 545 627 37,000  Level FlightAware ADS-B
Tue 08:20:13 AM -28.6248 154.0460 32° Northeast 546 628 37,000  Level FlightAware ADS-B
Tue 08:20:43 AM -28.5614 154.0916 32° Northeast 545 627 37,000  Level FlightAware ADS-B
Tue 08:21:13 AM -28.4916 154.1418 32° Northeast 545 627 37,000  Level FlightAware ADS-B
Tue 08:21:43 AM -28.4287 154.1868 32° Northeast 545 627 37,000  Level FlightAware ADS-B
Tue 08:22:13 AM -28.3664 154.2311 32° Northeast 544 626 37,000  Level FlightAware ADS-B
Tue 08:22:52 AM -28.2821 154.2912 32° Northeast 543 625 37,000 160 Level FlightAware ADS-B
Tue 08:23:28 AM -28.2056 154.3459 32° Northeast 524 603 37,200  Climbing Aus ATC (RADAR)
Tue 08:23:52 AM -28.1529 154.3822 32° Northeast 541 623 37,000 -194 Descending FlightAware ADS-B
Tue 08:24:30 AM -28.0750 154.4380 32° Northeast 543 625 37,000 133 Level FlightAware ADS-B
Tue 08:24:37 AM -28.0594 154.4497 32° Northeast 539 620 37,100  Climbing Aus ATC (RADAR)
Tue 08:24:53 AM -28.0244 154.4738 32° Northeast 539 620 37,000 -109 Descending FlightAware ADS-B
Tue 08:25:32 AM -27.9414 154.5325 32° Northeast 537 618 37,000  Level FlightAware ADS-B
Tue 08:26:13 AM -27.8590 154.5907 32° Northeast 536 617 37,000  Level FlightAware ADS-B
Tue 08:26:44 AM -27.7905 154.6390 32° Northeast 536 617 37,000  Level FlightAware ADS-B
Tue 08:27:14 AM -27.7410 154.6740 32° Northeast 535 616 37,000  Level FlightAware ADS-B
Tue 08:27:23 AM -27.7082 154.6969 32° Northeast 534 615 37,000  Level FlightAware ADS-B
Tue 08:27:53 AM -27.6457 154.7418 32° Northeast 533 613 37,000  Level FlightAware ADS-B
Tue 08:28:23 AM -27.5932 154.7905 39° Northeast 534 615 37,000  Level FlightAware ADS-B
Tue 08:28:53 AM -27.5412 154.8536 47° Northeast 533 613 37,000  Level FlightAware ADS-B
Tue 08:29:23 AM -27.4898 154.9183 48° Northeast 533 613 37,000  Level FlightAware ADS-B
Tue 08:29:53 AM -27.4406 154.9802 48° Northeast 533 613 37,000  Level FlightAware ADS-B
Tue 08:30:23 AM -27.3918 155.0416 48° Northeast 533 613 37,000  Level FlightAware ADS-B
Tue 08:30:53 AM -27.3425 155.1034 48° Northeast 533 613 37,000  Level FlightAware ADS-B
Tue 08:31:33 AM -27.2774 155.1848 48° Northeast 532 612 37,000  Level FlightAware ADS-B
Tue 08:32:13 AM -27.2104 155.2682 48° Northeast 532 612 37,000  Level FlightAware ADS-B
Tue 08:33:02 AM -27.1307 155.3673 48° Northeast 530 610 37,000  Level FlightAware ADS-B
Tue 08:33:32 AM -27.0883 155.4198 48° Northeast 529 609 37,000 87 Level FlightAware ADS-B
Tue 08:34:11 AM -27.0174 155.5082 48° Northeast 525 604 37,100  Climbing Aus ATC (RADAR)
Tue 08:34:15 AM -27.0210 155.5040 48° Northeast 528 608 37,000 -150 Descending FlightAware ADS-B
Tue 08:34:51 AM -26.9710 155.5660 48° Northeast 528 608 37,000  Level FlightAware ADS-B
Tue 08:35:03 AM -26.9355 155.6088 47° Northeast 529 609 37,000  Level FlightAware ADS-B
Tue 08:35:33 AM -26.8823 155.6747 48° Northeast 528 608 37,000  Level FlightAware ADS-B
Tue 08:36:03 AM -26.8376 155.7303 48° Northeast 527 606 37,000  Level FlightAware ADS-B
Tue 08:36:33 AM -26.7839 155.7963 48° Northeast 526 605 37,000  Level FlightAware ADS-B
Tue 08:37:03 AM -26.7367 155.8544 48° Northeast 525 604 37,000  Level FlightAware ADS-B
Tue 08:37:33 AM -26.6863 155.9163 48° Northeast 524 603 37,000  Level FlightAware ADS-B
Tue 08:38:11 AM -26.6380 155.9740 47° Northeast 523 602 37,000  Level FlightAware ADS-B
Tue 08:38:22 AM -26.6148 156.0043 49° Northeast 522 601 37,000  Level FlightAware ADS-B
Tue 08:38:52 AM -26.5573 156.0745 48° Northeast 520 598 37,000  Level FlightAware ADS-B
Tue 08:39:32 AM -26.4959 156.1496 48° Northeast 518 596 37,000  Level FlightAware ADS-B
Tue 08:40:03 AM -26.4442 156.2130 48° Northeast 515 593 37,000  Level FlightAware ADS-B
Tue 08:40:33 AM -26.3953 156.2726 48° Northeast 513 590 37,000  Level FlightAware ADS-B
Tue 08:41:03 AM -26.3479 156.3305 48° Northeast 512 589 37,000 78 Level FlightAware ADS-B
Tue 08:41:50 AM -26.2725 156.4219 48° Northeast 505 581 37,100  Climbing Aus ATC (RADAR)
Tue 08:41:54 AM -26.2750 156.4180 48° Northeast 511 588 37,000 -462 Descending FlightAware ADS-B
Tue 08:42:03 AM -26.2525 156.4460 48° Northeast 510 587 37,000  Level FlightAware ADS-B
Tue 08:42:41 AM -26.1899 156.5214 47° Northeast 516 594 37,000  Level FlightAware ADS-B
Tue 08:43:23 AM -26.1320 156.5900 47° Northeast 516 594 37,000  Level FlightAware ADS-B
Tue 08:43:53 AM -26.0734 156.6622 48° Northeast 523 602 37,000  Level FlightAware ADS-B
Tue 08:44:44 AM -26.0030 156.7470 47° Northeast 524 603 37,000  Level FlightAware ADS-B
Tue 08:45:20 AM -25.9520 156.8070 47° Northeast 524 603 37,000  Level FlightAware ADS-B
Tue 08:45:56 AM -25.9010 156.8680 47° Northeast 524 603 37,000  Level FlightAware ADS-B
Tue 08:46:32 AM -25.8510 156.9280 47° Northeast 524 603 37,000  Level FlightAware ADS-B
Tue 08:47:08 AM -25.8000 156.9880 47° Northeast 524 603 37,000  Level FlightAware ADS-B
Tue 08:47:46 AM -25.7470 157.0520 47° Northeast 524 603 37,000  Level FlightAware ADS-B
Tue 08:48:20 AM -25.6990 157.1090 47° Northeast 524 603 37,000  Level FlightAware ADS-B
Tue 08:48:24 AM -25.6258 157.1994 47° Northeast 520 598 37,000  Level Aus ATC (RADAR)
Tue 08:48:57 AM -25.6470 157.1710 47° Northeast 524 603 37,000  Level FlightAware ADS-B
Tue 08:49:33 AM -25.5970 157.2310 47° Northeast 524 603 37,000  Level FlightAware ADS-B
Tue 08:49:34 AM -25.5052 157.3368 47° Northeast 525 604 37,000  Level Aus ATC (RADAR)
Tue 08:50:10 AM -25.5450 157.2930 47° Northeast 524 603 37,000  Level FlightAware ADS-B
Tue 08:50:46 AM -25.4940 157.3530 47° Northeast 524 603 37,000  Level FlightAware ADS-B
Tue 08:51:22 AM -25.4430 157.4130 47° Northeast 524 603 37,000  Level FlightAware ADS-B
Tue 08:51:58 AM -25.3930 157.4730 47° Northeast 524 603 37,000  Level FlightAware ADS-B
Tue 08:52:34 AM -25.3420 157.5330 47° Northeast 524 603 37,000  Level FlightAware ADS-B
Tue 08:53:10 AM -25.2920 157.5930 47° Northeast 524 603 37,000  Level FlightAware ADS-B
Tue 08:53:46 AM -25.2410 157.6530 47° Northeast 524 603 37,000  Level FlightAware ADS-B
Tue 08:54:29 AM -25.0095 157.9247 47° Northeast 37,000  Level Aus ATC (Calculated)
Tue 08:55:25 AM -24.9241 158.0250 67° East 37,000  Level Aus ATC (Calculated)
Tue 08:56:00 AM -24.8917 158.1096 55° Northeast  Level Estimated
Tue 08:57:00 AM -24.8013 158.2179 55° Northeast  Level Estimated
Tue 08:58:00 AM -24.7236 158.3396 55° Northeast  Level Estimated
Tue 08:59:00 AM -24.6458 158.4611 55° Northeast  Level Estimated
Tue 09:00:00 AM -24.5679 158.5824 55° Northeast  Level Estimated
Tue 09:01:00 AM -24.4899 158.7036 55° Northeast  Level Estimated
Tue 09:02:00 AM -24.4118 158.8246 55° Northeast  Level Estimated
Tue 09:03:00 AM -24.3336 158.9455 55° Northeast  Level Estimated
Tue 09:04:00 AM -24.2553 159.0663 55° Northeast  Level Estimated
Tue 09:05:00 AM -24.1769 159.1869 55° Northeast  Level Estimated
Tue 09:06:00 AM -24.0984 159.3073 54° Northeast  Level Estimated
Tue 09:07:00 AM -24.0198 159.4276 54° Northeast  Level Estimated
Tue 09:07:45 AM -23.6560 159.4903 56° Northeast 37,000  Level Aus ATC (Calculated)
Tue 09:08:00 AM -23.6210 159.5461 56° Northeast 37,000  Level Aus ATC (Calculated)
Tue 09:09:00 AM -23.5611 159.6427 56° Northeast  Level Estimated
Tue 09:10:00 AM -23.4690 159.7897 56° Northeast  Level Estimated
Tue 09:11:00 AM -23.3929 159.9112 56° Northeast  Level Estimated
Tue 09:11:00 AM -23.3796 159.9293 55° Northeast 37,000  Level Aus ATC (Calculated)
Tue 09:11:47 AM -23.3181 160.0266 57° Northeast 37,000  Level Aus ATC (Calculated)
Tue 09:12:00 AM -23.3034 160.0507 56° Northeast  Level Estimated
Tue 09:13:00 AM -23.2258 160.1733 56° Northeast  Level Estimated
Tue 09:14:00 AM -23.1499 160.2938 56° Northeast  Level Estimated
Tue 09:15:00 AM -23.0738 160.4141 56° Northeast  Level Estimated
Tue 09:16:00 AM -22.9977 160.5343 55° Northeast  Level Estimated
Tue 09:17:00 AM -22.9215 160.6543 55° Northeast  Level Estimated
Tue 09:18:00 AM -22.8452 160.7742 55° Northeast  Level Estimated
Tue 09:18:27 AM -22.7787 160.8712 55° Northeast 37,000  Level Aus ATC (Calculated)
Tue 09:20:00 AM -22.6602 161.0567 55° Northeast  Level Estimated
Tue 09:21:00 AM -22.5837 161.1761 55° Northeast  Level Estimated
Tue 09:21:00 AM -22.5621 161.2066 55° Northeast 37,000  Level Aus ATC (Calculated)
Tue 09:22:00 AM -22.4855 161.3259 55° Northeast  Level Estimated
Tue 09:23:00 AM -22.4087 161.4451 55° Northeast  Level Estimated
Tue 09:24:00 AM -22.3319 161.5642 55° Northeast  Level Estimated
Tue 09:25:00 AM -22.2550 161.6831 55° Northeast  Level Estimated
Tue 09:26:00 AM -22.1780 161.8019 55° Northeast  Level Estimated
Tue 09:27:00 AM -22.1009 161.9206 55° Northeast  Level Estimated
Tue 09:28:00 AM -22.0237 162.0392 55° Northeast  Level Estimated
Tue 09:29:00 AM -21.9465 162.1576 55° Northeast  Level Estimated
Tue 09:30:00 AM -21.8692 162.2759 55° Northeast  Level Estimated
Tue 09:31:00 AM -21.7148 162.4986 232° Southwest 37,000  Level Aus ATC (Calculated)
Tue 09:31:00 AM -21.7917 162.3940 55° Northeast  Level Estimated
Tue 09:32:00 AM -21.6373 162.6166 55° Northeast  Level Estimated
Tue 09:33:00 AM -21.5598 162.7344 55° Northeast  Level Estimated
Tue 09:34:00 AM -21.4821 162.8522 55° Northeast  Level Estimated
Tue 09:35:00 AM -21.4044 162.9698 55° Northeast  Level Estimated
Tue 09:36:00 AM -21.3266 163.0873 55° Northeast  Level Estimated
Tue 09:37:00 AM -21.2487 163.2047 55° Northeast  Level Estimated
Tue 09:38:00 AM -21.1708 163.3219 55° Northeast  Level Estimated
Tue 09:39:00 AM -21.0927 163.4391 54° Northeast  Level Estimated
Tue 09:40:00 AM -21.0146 163.5561 54° Northeast  Level Estimated
Tue 09:41:00 AM -20.9364 163.6729 54° Northeast  Level Estimated
Tue 09:42:00 AM -20.8581 163.7897 54° Northeast  Level Estimated
Tue 09:43:00 AM -20.7798 163.9063 54° Northeast  Level Estimated
Tue 09:44:00 AM -20.7013 164.0228 54° Northeast  Level Estimated
Tue 09:45:00 AM -20.6228 164.1392 54° Northeast  Level Estimated
Tue 09:46:00 AM -20.5442 164.2555 54° Northeast  Level Estimated
Tue 09:47:00 AM -20.4655 164.3717 54° Northeast  Level Estimated
Tue 09:48:00 AM -20.3868 164.4877 54° Northeast  Level Estimated
Tue 09:49:00 AM -20.3079 164.6036 54° Northeast  Level Estimated
Tue 09:50:00 AM -20.2290 164.7194 54° Northeast  Level Estimated
Tue 09:51:00 AM -20.1501 164.8351 54° Northeast  Level Estimated
Tue 09:52:00 AM -20.0710 164.9507 54° Northeast  Level Estimated
Tue 09:53:00 AM -19.9919 165.0661 54° Northeast  Level Estimated
Tue 09:54:00 AM -19.9127 165.1814 54° Northeast  Level Estimated
Tue 09:55:00 AM -19.8334 165.2967 54° Northeast  Level Estimated
Tue 09:56:00 AM -19.7540 165.4118 54° Northeast  Level Estimated
Tue 09:57:00 AM -19.6746 165.5267 54° Northeast  Level Estimated
Tue 09:58:00 AM -19.5951 165.6416 54° Northeast  Level Estimated
Tue 09:59:00 AM -19.5155 165.7564 54° Northeast  Level Estimated
Tue 10:00:00 AM -19.4359 165.8710 54° Northeast  Level Estimated
Tue 10:01:00 AM -19.3562 165.9856 54° Northeast  Level Estimated
Tue 10:02:00 AM -19.2764 166.1000 54° Northeast  Level Estimated
Tue 10:03:00 AM -19.1965 166.2143 54° Northeast  Level Estimated
Tue 10:04:00 AM -19.1166 166.3285 53° Northeast  Level Estimated
Tue 10:05:00 AM -19.0366 166.4426 53° Northeast  Level Estimated
Tue 10:06:00 AM -18.9565 166.5566 53° Northeast  Level Estimated
Tue 10:07:00 AM -18.8764 166.6704 53° Northeast  Level Estimated
Tue 10:08:00 AM -18.7962 166.7842 53° Northeast  Level Estimated
Tue 10:09:00 AM -18.7159 166.8978 53° Northeast  Level Estimated
Tue 10:10:00 AM -18.6355 167.0114 53° Northeast  Level Estimated
Tue 10:11:00 AM -18.5551 167.1248 53° Northeast  Level Estimated
Tue 10:12:00 AM -18.4746 167.2381 53° Northeast  Level Estimated
Tue 10:13:00 AM -18.3941 167.3514 53° Northeast  Level Estimated
Tue 10:14:00 AM -18.3135 167.4645 53° Northeast  Level Estimated
Tue 10:15:00 AM -18.2328 167.5775 53° Northeast  Level Estimated
Tue 10:16:00 AM -18.1520 167.6904 53° Northeast  Level Estimated
Tue 10:17:00 AM -18.0712 167.8032 53° Northeast  Level Estimated
Tue 10:18:00 AM -17.9903 167.9159 53° Northeast  Level Estimated
Tue 10:19:00 AM -17.9094 168.0285 53° Northeast  Level Estimated
Tue 10:20:00 AM -17.8284 168.1410 53° Northeast  Level Estimated
Tue 10:21:00 AM -17.7473 168.2534 53° Northeast  Level Estimated
Tue 10:22:00 AM -17.6993 168.3198 53° Northeast  Level Estimated
Tue 10:23:00 AM -17.6993 168.3198 143° Southeast  Level Estimated
Tue 10:24:00 AM -17.6993 168.3198 37° Northeast  Level Estimated
Tue 10:25:00 AM -17.6993 168.3198 143° Southeast  Level Estimated
Tue 10:26:00 AM -17.6993 168.3198 37° Northeast  Level Estimated
Tue 10:27:00 AM -17.6993 168.3198 143° Southeast  Level Estimated
Tue 10:28:00 AM -17.6993 168.3198 37° Northeast  Level Estimated
Tue 10:29:00 AM -17.6993 168.3198 143° Southeast  Level Estimated
Tue 10:30:00 AM -17.6993 168.3198 37° Northeast  Level Estimated
Tue 10:31:00 AM -17.6993 168.3198 143° Southeast  Level Estimated
Tue 10:32:00 AM -17.6993 168.3198 37° Northeast  Level Estimated
Tue 10:33:00 AM -17.6993 168.3198 143° Southeast  Level Estimated
Tue 10:34:00 AM -17.6993 168.3198 37° Northeast  Level Estimated
Tue 10:35:00 AM -17.6993 168.3198 143° Southeast  Level Estimated
Tue 10:36:00 AM -17.6993 168.3198 37° Northeast  Level Estimated
Tue 10:37:00 AM -17.6993 168.3198 143° Southeast  Level Estimated
Tue 10:38:00 AM -17.6993 168.3198 37° Northeast  Level Estimated
Tue 10:39:00 AM -17.6993 168.3198 143° Southeast  Level Estimated
Tue 10:40:00 AM -17.6993 168.3198 37° Northeast  Level Estimated
Tue 10:41:00 AM -17.6993 168.3198 143° Southeast  Level Estimated

Login

Don't have an account? Register now (free) for customized features, flight alerts, and more!